createdAt,value
2019-03-11T00:02:45.866Z,113.79
2019-03-11T00:05:51.152Z,113.68
2019-03-11T00:08:56.445Z,113.59
2019-03-11T00:12:01.831Z,113.49
2019-03-11T00:15:07.462Z,113.34
2019-03-11T00:18:12.719Z,113.06
2019-03-11T00:21:17.965Z,112.85
2019-03-11T00:24:23.214Z,112.94
2019-03-11T00:27:28.531Z,112.79
2019-03-11T00:30:35.315Z,112.89
2019-03-11T00:33:40.638Z,113.11
2019-03-11T00:36:48.168Z,113.40
2019-03-11T00:39:53.449Z,113.14
2019-03-11T00:42:58.730Z,113.27
2019-03-11T00:46:04.009Z,113.21
2019-03-11T00:49:09.300Z,112.56
2019-03-11T00:52:14.613Z,112.82
2019-03-11T00:55:19.890Z,112.86
2019-03-11T00:58:25.241Z,112.85
2019-03-11T01:01:30.791Z,112.89
2019-03-11T01:04:36.104Z,112.95
2019-03-11T01:07:41.329Z,112.78
2019-03-11T01:10:46.622Z,112.46
2019-03-11T01:13:51.905Z,112.45
2019-03-11T01:16:57.228Z,112.06
2019-03-11T01:20:02.494Z,111.95
2019-03-11T01:23:07.745Z,111.98
2019-03-11T01:26:12.985Z,111.84
2019-03-11T01:29:19.233Z,111.40
2019-03-11T01:32:24.554Z,111.38
2019-03-11T01:35:31.076Z,111.50
2019-03-11T01:38:36.406Z,111.18
2019-03-11T01:41:41.723Z,111.16
2019-03-11T01:44:46.977Z,110.92
2019-03-11T01:47:52.215Z,110.48
2019-03-11T01:50:57.483Z,110.21
2019-03-11T01:54:02.730Z,110.37
2019-03-11T01:57:08.025Z,110.34
2019-03-11T02:00:14.294Z,110.32
2019-03-11T02:03:19.569Z,109.97
2019-03-11T02:06:25.147Z,110.20
2019-03-11T02:09:30.388Z,110.16
2019-03-11T02:12:35.658Z,110.18
2019-03-11T02:15:40.933Z,110.34
2019-03-11T02:18:46.199Z,110.02
2019-03-11T02:21:51.468Z,109.67
2019-03-11T02:24:56.714Z,109.43
2019-03-11T02:28:02.006Z,109.02
2019-03-11T02:31:07.279Z,109.24
2019-03-11T02:34:12.596Z,108.98
2019-03-11T02:37:17.965Z,109.20
2019-03-11T02:40:23.296Z,109.83
2019-03-11T02:43:28.636Z,110.36
2019-03-11T02:46:35.410Z,110.76
2019-03-11T02:49:43.737Z,111.16
2019-03-11T02:52:47.708Z,111.37
2019-03-11T02:55:52.958Z,111.50
2019-03-11T02:58:58.235Z,112.00
2019-03-11T03:02:16.854Z,112.07
2019-03-11T03:05:50.129Z,112.60
2019-03-11T03:08:55.432Z,113.02
2019-03-11T03:12:00.752Z,113.44
2019-03-11T03:15:06.612Z,113.78
2019-03-11T03:18:11.890Z,113.89
2019-03-11T03:21:17.177Z,114.37
2019-03-11T03:24:22.540Z,114.66
2019-03-11T03:27:27.810Z,114.49
2019-03-11T03:30:33.125Z,114.59
2019-03-11T03:33:38.456Z,114.81
2019-03-11T03:36:43.800Z,114.85
2019-03-11T03:39:49.108Z,115.01
2019-03-11T03:42:56.265Z,114.85
2019-03-11T03:46:17.327Z,115.14
2019-03-11T03:49:10.554Z,115.20
2019-03-11T03:52:15.809Z,115.36
2019-03-11T03:55:21.586Z,115.85
2019-03-11T03:58:26.899Z,116.04
2019-03-11T04:01:38.335Z,116.20
2019-03-11T04:04:43.686Z,116.43
2019-03-11T04:07:48.917Z,116.48
2019-03-11T04:10:54.181Z,116.46
2019-03-11T04:13:59.509Z,116.43
2019-03-11T04:17:04.753Z,116.38
2019-03-11T04:20:12.728Z,116.44
2019-03-11T04:23:18.092Z,116.69
2019-03-11T04:26:28.283Z,116.78
2019-03-11T04:29:33.659Z,117.02
2019-03-11T04:32:38.886Z,117.10
2019-03-11T04:35:44.183Z,117.03
2019-03-11T04:38:49.414Z,117.05
2019-03-11T04:41:54.717Z,117.13
2019-03-11T04:44:59.998Z,117.07
2019-03-11T04:48:05.428Z,117.17
2019-03-11T04:51:10.741Z,117.35
2019-03-11T04:54:15.961Z,117.35
2019-03-11T04:57:23.464Z,117.41
2019-03-11T05:00:29.183Z,117.39
2019-03-11T05:03:34.551Z,117.42
2019-03-11T05:06:41.055Z,117.38
2019-03-11T05:09:46.370Z,117.37
2019-03-11T05:12:51.656Z,117.36
2019-03-11T05:15:57.038Z,117.34
2019-03-11T05:19:03.275Z,117.36
2019-03-11T05:22:08.613Z,117.25
2019-03-11T05:25:14.070Z,117.04
2019-03-11T05:28:19.429Z,116.95
2019-03-11T05:31:24.648Z,116.86
2019-03-11T05:34:30.149Z,116.75
2019-03-11T05:37:35.589Z,116.26
2019-03-11T05:40:40.960Z,115.85
2019-03-11T05:43:46.392Z,115.41
2019-03-11T05:46:51.754Z,115.32
2019-03-11T05:49:57.068Z,115.50
2019-03-11T05:53:06.349Z,115.39
2019-03-11T05:56:11.664Z,115.19
2019-03-11T05:59:17.067Z,114.91
2019-03-11T06:02:22.478Z,114.70
2019-03-11T06:05:27.758Z,114.11
2019-03-11T06:08:33.248Z,113.92
2019-03-11T06:11:38.545Z,113.43
2019-03-11T06:14:43.839Z,113.25
2019-03-11T06:17:49.285Z,113.11
2019-03-11T06:21:13.635Z,112.44
2019-03-11T06:24:19.008Z,111.87
2019-03-11T06:27:24.392Z,111.72
2019-03-11T06:30:30.804Z,111.19
2019-03-11T06:33:37.087Z,111.05
2019-03-11T06:36:42.334Z,110.95
2019-03-11T06:39:47.696Z,111.08
2019-03-11T06:42:52.958Z,110.81
2019-03-11T06:45:58.213Z,110.70
2019-03-11T06:49:03.510Z,110.47
2019-03-11T06:52:09.669Z,110.32
2019-03-11T06:55:15.027Z,109.68
2019-03-11T06:58:21.848Z,109.21
2019-03-11T07:01:28.219Z,108.54
2019-03-11T07:04:33.487Z,108.26
2019-03-11T07:07:38.709Z,107.90
2019-03-11T07:10:43.958Z,108.09
2019-03-11T07:13:49.172Z,107.96
2019-03-11T07:16:54.464Z,107.83
2019-03-11T07:19:59.779Z,108.64
2019-03-11T07:23:05.049Z,108.70
2019-03-11T07:26:10.334Z,109.33
2019-03-11T07:29:15.589Z,109.50
2019-03-11T07:32:20.863Z,110.09
2019-03-11T07:35:26.150Z,110.02
2019-03-11T07:38:31.434Z,109.85
2019-03-11T07:41:36.725Z,109.31
2019-03-11T07:44:41.976Z,109.04
2019-03-11T07:47:47.253Z,109.40
2019-03-11T07:50:52.648Z,108.86
2019-03-11T07:53:57.938Z,109.05
2019-03-11T07:57:03.306Z,108.37
2019-03-11T08:00:10.251Z,108.45
2019-03-11T08:03:15.489Z,108.53
2019-03-11T08:06:21.763Z,108.47
2019-03-11T08:09:37.247Z,107.99
2019-03-11T08:12:33.986Z,106.38
2019-03-11T08:15:39.279Z,105.74
2019-03-11T08:18:44.647Z,105.26
2019-03-11T08:21:49.865Z,102.34
2019-03-11T08:24:55.173Z,101.20
2019-03-11T08:28:01.464Z,101.01
2019-03-11T08:31:07.777Z,101.62
2019-03-11T08:34:13.084Z,103.22
2019-03-11T08:37:18.334Z,103.67
2019-03-11T08:40:23.669Z,105.30
2019-03-11T08:43:29.017Z,106.19
2019-03-11T08:46:34.239Z,108.43
2019-03-11T08:49:39.547Z,108.32
2019-03-11T08:52:44.805Z,109.31
2019-03-11T08:55:50.100Z,109.72
2019-03-11T08:59:00.252Z,109.70
2019-03-11T09:02:02.544Z,110.90
2019-03-11T09:05:10.722Z,111.50
2019-03-11T09:08:16.062Z,119.00
2019-03-11T09:11:21.397Z,119.00
2019-03-11T09:14:26.656Z,119.00
2019-03-11T09:17:31.953Z,119.00
2019-03-11T09:20:37.296Z,119.00
2019-03-11T09:23:42.587Z,119.00
2019-03-11T09:26:47.841Z,119.00
2019-03-11T09:29:53.211Z,119.00
2019-03-11T09:32:58.583Z,119.00
2019-03-11T09:36:03.834Z,119.00
2019-03-11T09:39:12.155Z,119.00
2019-03-11T09:42:17.461Z,119.00
2019-03-11T09:45:24.253Z,119.00
2019-03-11T09:48:29.972Z,119.00
2019-03-11T09:51:35.361Z,119.00
2019-03-11T09:54:40.597Z,118.46
2019-03-11T09:57:47.043Z,118.03
2019-03-11T10:00:52.354Z,116.61
2019-03-11T10:03:57.653Z,116.82
2019-03-11T10:07:03.017Z,118.08
2019-03-11T10:10:09.978Z,117.47
2019-03-11T10:13:15.303Z,117.59
2019-03-11T10:16:23.333Z,118.03
2019-03-11T10:19:28.693Z,115.85
2019-03-11T10:22:33.944Z,115.86
2019-03-11T10:25:39.248Z,115.53
2019-03-11T10:28:44.527Z,114.09
2019-03-11T10:31:49.838Z,110.68
2019-03-11T10:34:55.131Z,110.36
2019-03-11T10:38:00.414Z,110.89
2019-03-11T10:41:05.782Z,110.57
2019-03-11T10:44:14.686Z,110.92
2019-03-11T10:47:19.676Z,110.53
2019-03-11T10:50:24.967Z,107.64
2019-03-11T10:53:30.207Z,107.75
2019-03-11T10:56:35.517Z,108.40
2019-03-11T10:59:40.847Z,106.48
2019-03-11T11:02:46.157Z,106.06
2019-03-11T11:05:51.452Z,106.01
2019-03-11T11:08:56.849Z,105.84
2019-03-11T11:12:02.127Z,106.83
2019-03-11T11:15:10.483Z,104.90
2019-03-11T11:18:15.761Z,103.90
2019-03-11T11:21:21.161Z,102.87
2019-03-11T11:24:26.402Z,104.81
2019-03-11T11:27:32.244Z,104.55
2019-03-11T11:30:37.568Z,103.21
2019-03-11T11:33:42.846Z,103.50
2019-03-11T11:36:50.379Z,104.04
2019-03-11T11:39:55.687Z,103.54
2019-03-11T11:43:01.000Z,103.86
2019-03-11T11:46:06.293Z,105.12
2019-03-11T11:49:13.218Z,106.87
2019-03-11T11:52:18.491Z,107.56
2019-03-11T11:55:24.002Z,108.95
2019-03-11T11:58:29.367Z,109.81
2019-03-11T12:01:34.635Z,110.72
2019-03-11T12:04:40.145Z,111.12
2019-03-11T12:07:45.723Z,111.50
2019-03-11T12:10:51.003Z,112.18
2019-03-11T12:13:56.415Z,112.26
2019-03-11T12:17:02.588Z,113.14
2019-03-11T12:20:09.711Z,113.57
2019-03-11T12:23:14.997Z,113.44
2019-03-11T12:26:20.248Z,113.57
2019-03-11T12:29:28.319Z,112.50
2019-03-11T12:32:33.649Z,113.14
2019-03-11T12:35:38.980Z,112.60
2019-03-11T12:38:44.343Z,111.63
2019-03-11T12:41:49.629Z,112.09
2019-03-11T12:44:54.830Z,110.62
2019-03-11T12:48:00.263Z,109.37
2019-03-11T12:51:05.616Z,109.23
2019-03-11T12:54:13.167Z,108.25
2019-03-11T12:57:18.468Z,109.38
2019-03-11T13:00:23.843Z,107.32
2019-03-11T13:03:29.106Z,106.16
2019-03-11T13:06:34.406Z,106.67
2019-03-11T13:09:39.691Z,105.03
2019-03-11T13:12:45.031Z,104.97
2019-03-11T13:15:50.345Z,105.67
2019-03-11T13:18:58.041Z,106.77
2019-03-11T13:22:04.647Z,108.03
2019-03-11T13:25:09.994Z,108.32
2019-03-11T13:28:15.274Z,109.06
2019-03-11T13:31:20.503Z,107.95
2019-03-11T13:34:25.806Z,108.14
2019-03-11T13:37:31.105Z,107.25
2019-03-11T13:40:36.375Z,106.94
2019-03-11T13:43:41.727Z,105.42
2019-03-11T13:46:47.035Z,102.53
2019-03-11T13:49:52.325Z,103.43
2019-03-11T13:52:58.581Z,100.01
2019-03-11T13:56:03.870Z,98.79
2019-03-11T13:59:09.127Z,99.44
2019-03-11T14:02:14.425Z,98.81
2019-03-11T14:05:19.784Z,97.29
2019-03-11T14:08:25.122Z,96.54
2019-03-11T14:11:30.423Z,97.70
2019-03-11T14:14:35.696Z,98.38
2019-03-11T14:17:41.027Z,99.19
2019-03-11T14:20:46.350Z,99.78
2019-03-11T14:23:51.648Z,102.18
2019-03-11T14:26:58.552Z,104.65
2019-03-11T14:30:05.173Z,105.93
2019-03-11T14:33:10.561Z,107.06
2019-03-11T14:36:15.810Z,107.55
2019-03-11T14:39:21.259Z,107.57
2019-03-11T14:42:26.538Z,105.74
2019-03-11T14:45:31.833Z,106.10
2019-03-11T14:48:37.150Z,107.12
2019-03-11T14:51:44.061Z,108.63
2019-03-11T14:54:49.346Z,107.95
2019-03-11T14:57:54.675Z,108.62
2019-03-11T15:01:00.415Z,107.48
2019-03-11T15:04:05.719Z,108.48
2019-03-11T15:07:11.070Z,108.62
2019-03-11T15:10:16.950Z,108.46
2019-03-11T15:13:22.385Z,108.28
2019-03-11T15:16:27.751Z,108.78
2019-03-11T15:19:33.071Z,110.34
2019-03-11T15:22:38.424Z,109.95
2019-03-11T15:25:46.893Z,111.44
2019-03-11T15:28:52.257Z,111.69
2019-03-11T15:31:57.842Z,112.05
2019-03-11T15:35:03.159Z,111.73
2019-03-11T15:38:08.551Z,111.88
2019-03-11T15:41:13.841Z,111.31
2019-03-11T15:44:19.209Z,111.77
2019-03-11T15:47:24.605Z,111.63
2019-03-11T15:50:30.214Z,111.35
2019-03-11T15:53:35.503Z,110.76
2019-03-11T15:56:40.807Z,110.51
2019-03-11T15:59:46.050Z,112.01
2019-03-11T16:02:51.405Z,111.41
2019-03-11T16:05:56.716Z,111.59
2019-03-11T16:09:02.250Z,111.85
2019-03-11T16:12:09.170Z,112.92
2019-03-11T16:15:15.162Z,112.48
2019-03-11T16:18:22.525Z,111.97
2019-03-11T16:21:27.495Z,112.26
2019-03-11T16:24:33.739Z,112.63
2019-03-11T16:27:38.994Z,113.49
2019-03-11T16:30:44.241Z,114.12
2019-03-11T16:33:49.561Z,114.01
2019-03-11T16:36:54.868Z,113.99
2019-03-11T16:40:00.357Z,114.10
2019-03-11T16:43:06.675Z,113.80
2019-03-11T16:46:11.951Z,114.14
2019-03-11T16:49:17.254Z,114.75
2019-03-11T16:52:22.535Z,114.88
2019-03-11T16:55:30.096Z,113.86
2019-03-11T16:58:35.526Z,114.70
2019-03-11T17:01:40.916Z,115.13
2019-03-11T17:04:46.204Z,115.01
2019-03-11T17:07:51.539Z,114.92
2019-03-11T17:10:58.067Z,114.62
2019-03-11T17:14:03.367Z,114.94
2019-03-11T17:17:10.963Z,115.40
2019-03-11T17:20:16.527Z,114.84
2019-03-11T17:23:23.166Z,114.56
2019-03-11T17:26:28.487Z,115.42
2019-03-11T17:29:33.721Z,115.23
2019-03-11T17:32:39.100Z,116.55
2019-03-11T17:35:44.442Z,117.07
2019-03-11T17:38:49.699Z,117.98
2019-03-11T17:41:54.951Z,118.17
2019-03-11T17:45:00.365Z,118.40
2019-03-11T17:48:05.616Z,117.92
2019-03-11T17:51:10.931Z,117.60
2019-03-11T17:54:17.287Z,117.66
2019-03-11T17:57:22.547Z,117.47
2019-03-11T18:00:29.528Z,116.38
2019-03-11T18:03:38.027Z,116.02
2019-03-11T18:06:52.311Z,116.41
2019-03-11T18:09:59.502Z,115.88
2019-03-11T18:13:11.448Z,114.14
2019-03-11T18:16:23.029Z,113.97
2019-03-11T18:19:46.682Z,113.56
2019-03-11T18:22:54.405Z,112.69
2019-03-11T18:25:59.783Z,112.38
2019-03-11T18:29:06.000Z,112.23
2019-03-11T18:32:11.783Z,112.30
2019-03-11T18:35:17.132Z,111.76
2019-03-11T18:38:23.458Z,112.36
2019-03-11T18:41:32.606Z,113.03
2019-03-11T18:44:39.688Z,112.67
2019-03-11T18:47:46.946Z,112.34
2019-03-11T18:50:55.100Z,112.79
2019-03-11T18:54:01.824Z,109.70
2019-03-11T18:57:15.809Z,108.37
2019-03-11T19:00:23.961Z,106.84
2019-03-11T19:03:29.370Z,106.45
2019-03-11T19:06:34.728Z,105.48
2019-03-11T19:09:40.009Z,106.39
2019-03-11T19:12:46.022Z,106.07
2019-03-11T19:16:14.416Z,106.13
2019-03-11T19:19:21.612Z,106.85
2019-03-11T19:22:28.391Z,107.93
2019-03-11T19:25:33.752Z,108.13
2019-03-11T19:28:42.770Z,108.57
2019-03-11T19:31:53.958Z,108.57
2019-03-11T19:34:59.876Z,108.37
2019-03-11T19:38:10.242Z,108.64
2019-03-11T19:41:20.950Z,109.18
2019-03-11T19:44:23.319Z,109.13
2019-03-11T19:47:30.210Z,109.37
2019-03-11T19:50:37.293Z,109.28
2019-03-11T19:53:42.776Z,109.92
2019-03-11T19:56:48.565Z,109.57
2019-03-11T19:59:54.568Z,109.04
2019-03-11T20:03:00.724Z,108.98
2019-03-11T20:06:06.390Z,108.90
2019-03-11T20:09:14.492Z,108.99
2019-03-11T20:12:22.649Z,108.67
2019-03-11T20:15:28.336Z,109.12
2019-03-11T20:18:33.746Z,109.23
2019-03-11T20:21:39.511Z,109.55
2019-03-11T20:24:44.890Z,109.83
2019-03-11T20:27:50.280Z,109.40
2019-03-11T20:30:55.776Z,109.92
2019-03-11T20:34:01.341Z,110.19
2019-03-11T20:37:06.810Z,110.18
2019-03-11T20:40:13.042Z,110.11
2019-03-11T20:43:18.499Z,109.71
2019-03-11T20:46:23.852Z,109.00
2019-03-11T20:49:29.197Z,108.93
2019-03-11T20:52:34.562Z,109.28
2019-03-11T20:55:39.882Z,109.73
2019-03-11T20:58:45.221Z,109.95
2019-03-11T21:01:50.627Z,108.60
2019-03-11T21:04:55.921Z,108.29
2019-03-11T21:08:01.281Z,108.44
2019-03-11T21:11:06.874Z,108.94
2019-03-11T21:14:18.624Z,110.18
2019-03-11T21:17:26.922Z,110.14
2019-03-11T21:20:30.836Z,110.18
2019-03-11T21:23:36.149Z,110.37
2019-03-11T21:26:41.576Z,111.33
2019-03-11T21:29:46.870Z,111.15
2019-03-11T21:32:52.323Z,110.46
2019-03-11T21:35:57.650Z,110.15
2019-03-11T21:39:03.101Z,109.92
2019-03-11T21:42:10.081Z,109.76
2019-03-11T21:45:16.430Z,110.32
2019-03-11T21:48:21.810Z,110.18
2019-03-11T21:51:28.676Z,110.24
2019-03-11T21:54:41.322Z,110.63
2019-03-11T21:57:46.653Z,108.88
2019-03-11T22:00:51.917Z,107.55
2019-03-11T22:03:57.180Z,106.68
2019-03-11T22:07:02.419Z,105.17
2019-03-11T22:10:08.378Z,106.48
2019-03-11T22:13:13.633Z,107.59
2019-03-11T22:16:18.909Z,107.80
2019-03-11T22:19:24.242Z,108.69
2019-03-11T22:22:29.514Z,108.86
2019-03-11T22:25:34.780Z,109.41
2019-03-11T22:28:40.145Z,110.33
2019-03-11T22:31:45.455Z,110.76
2019-03-11T22:34:52.312Z,111.22
2019-03-11T22:37:57.593Z,112.37
2019-03-11T22:41:02.880Z,111.20
2019-03-11T22:44:08.120Z,110.70
2019-03-11T22:47:13.955Z,111.12
2019-03-11T22:50:19.544Z,111.57
2019-03-11T22:53:24.844Z,112.10
2019-03-11T22:56:30.128Z,110.40
2019-03-11T22:59:35.352Z,110.08
2019-03-11T23:02:41.105Z,110.73
2019-03-11T23:05:57.720Z,111.29
2019-03-11T23:08:53.370Z,111.56
2019-03-11T23:11:58.642Z,111.73
2019-03-11T23:15:03.938Z,111.38
2019-03-11T23:18:09.235Z,111.67
2019-03-11T23:21:14.483Z,111.42
2019-03-11T23:24:20.094Z,111.70
2019-03-11T23:27:25.328Z,112.05
2019-03-11T23:30:31.622Z,112.18
2019-03-11T23:33:36.917Z,113.14
2019-03-11T23:36:43.588Z,113.73
2019-03-11T23:39:48.905Z,113.90
2019-03-11T23:42:54.268Z,114.03
2019-03-11T23:45:59.595Z,114.28
2019-03-11T23:49:04.946Z,114.60
2019-03-11T23:52:10.234Z,114.40
2019-03-11T23:55:15.587Z,114.27
2019-03-11T23:58:20.892Z,114.03
